sensor_id;sensor_type;location;lat;lon;timestamp;P1;durP1;ratioP1;P2;durP2;ratioP2
60488;SDS011;46331;49.252;8.904;2023-05-01T00:00:03;6.38;;;3.28;;
60488;SDS011;46331;49.252;8.904;2023-05-01T00:00:46;7.57;;;3.55;;
60488;SDS011;46331;49.252;8.904;2023-05-01T00:01:27;8.38;;;3.83;;
60488;SDS011;46331;49.252;8.904;2023-05-01T00:02:07;9.50;;;4.13;;
60488;SDS011;46331;49.252;8.904;2023-05-01T00:02:48;8.00;;;3.70;;
60488;SDS011;46331;49.252;8.904;2023-05-01T00:03:28;7.87;;;3.57;;
60488;SDS011;46331;49.252;8.904;2023-05-01T00:04:08;7.78;;;3.83;;
60488;SDS011;46331;49.252;8.904;2023-05-01T00:04:49;9.50;;;3.60;;
60488;SDS011;46331;49.252;8.904;2023-05-01T00:05:30;7.80;;;3.70;;
60488;SDS011;46331;49.252;8.904;2023-05-01T00:06:10;7.93;;;3.80;;
60488;SDS011;46331;49.252;8.904;2023-05-01T00:06:53;7.30;;;3.60;;
60488;SDS011;46331;49.252;8.904;2023-05-01T00:07:34;6.50;;;3.67;;
60488;SDS011;46331;49.252;8.904;2023-05-01T00:08:14;6.63;;;3.87;;
60488;SDS011;46331;49.252;8.904;2023-05-01T00:08:55;6.90;;;3.50;;
60488;SDS011;46331;49.252;8.904;2023-05-01T00:09:35;7.00;;;3.73;;
60488;SDS011;46331;49.252;8.904;2023-05-01T00:10:16;5.87;;;3.37;;
60488;SDS011;46331;49.252;8.904;2023-05-01T00:11:01;6.18;;;3.38;;
60488;SDS011;46331;49.252;8.904;2023-05-01T00:11:43;8.18;;;3.60;;
60488;SDS011;46331;49.252;8.904;2023-05-01T00:12:25;6.68;;;3.40;;
60488;SDS011;46331;49.252;8.904;2023-05-01T00:13:06;7.63;;;4.18;;
60488;SDS011;46331;49.252;8.904;2023-05-01T00:13:46;7.30;;;4.27;;
60488;SDS011;46331;49.252;8.904;2023-05-01T00:14:27;9.00;;;3.92;;
60488;SDS011;46331;49.252;8.904;2023-05-01T00:15:08;7.55;;;3.28;;
60488;SDS011;46331;49.252;8.904;2023-05-01T00:15:49;9.30;;;3.63;;
60488;SDS011;46331;49.252;8.904;2023-05-01T00:16:31;7.38;;;3.70;;
60488;SDS011;46331;49.252;8.904;2023-05-01T00:17:11;7.30;;;3.42;;
60488;SDS011;46331;49.252;8.904;2023-05-01T00:17:52;7.73;;;3.53;;
60488;SDS011;46331;49.252;8.904;2023-05-01T00:18:33;6.93;;;3.67;;
60488;SDS011;46331;49.252;8.904;2023-05-01T00:19:13;7.43;;;3.43;;
60488;SDS011;46331;49.252;8.904;2023-05-01T00:19:57;5.80;;;3.27;;
60488;SDS011;46331;49.252;8.904;2023-05-01T00:20:38;7.45;;;3.53;;
60488;SDS011;46331;49.252;8.904;2023-05-01T00:21:18;8.07;;;3.78;;
60488;SDS011;46331;49.252;8.904;2023-05-01T00:21:59;7.60;;;3.57;;
60488;SDS011;46331;49.252;8.904;2023-05-01T00:22:39;6.60;;;3.40;;
60488;SDS011;46331;49.252;8.904;2023-05-01T00:23:20;8.77;;;4.07;;
60488;SDS011;46331;49.252;8.904;2023-05-01T00:24:00;8.27;;;3.70;;
60488;SDS011;46331;49.252;8.904;2023-05-01T00:24:41;7.47;;;3.33;;
60488;SDS011;46331;49.252;8.904;2023-05-01T00:25:21;7.83;;;3.53;;
60488;SDS011;46331;49.252;8.904;2023-05-01T00:26:02;6.93;;;3.40;;
60488;SDS011;46331;49.252;8.904;2023-05-01T00:26:43;8.50;;;3.70;;
60488;SDS011;46331;49.252;8.904;2023-05-01T00:27:24;7.95;;;3.60;;
60488;SDS011;46331;49.252;8.904;2023-05-01T00:28:04;9.37;;;3.90;;
60488;SDS011;46331;49.252;8.904;2023-05-01T00:28:45;8.13;;;3.90;;
60488;SDS011;46331;49.252;8.904;2023-05-01T00:29:26;6.53;;;3.78;;
60488;SDS011;46331;49.252;8.904;2023-05-01T00:30:07;7.07;;;3.85;;
60488;SDS011;46331;49.252;8.904;2023-05-01T00:30:48;7.13;;;3.73;;
60488;SDS011;46331;49.252;8.904;2023-05-01T00:31:29;7.82;;;3.92;;
60488;SDS011;46331;49.252;8.904;2023-05-01T00:32:09;6.97;;;3.80;;
60488;SDS011;46331;49.252;8.904;2023-05-01T00:32:50;9.27;;;3.80;;
60488;SDS011;46331;49.252;8.904;2023-05-01T00:33:30;7.57;;;4.20;;
60488;SDS011;46331;49.252;8.904;2023-05-01T00:34:11;8.20;;;4.18;;
60488;SDS011;46331;49.252;8.904;2023-05-01T00:34:51;8.30;;;4.00;;
60488;SDS011;46331;49.252;8.904;2023-05-01T00:35:32;8.05;;;3.80;;
60488;SDS011;46331;49.252;8.904;2023-05-01T00:36:15;8.00;;;4.10;;
60488;SDS011;46331;49.252;8.904;2023-05-01T00:36:55;7.93;;;4.13;;
60488;SDS011;46331;49.252;8.904;2023-05-01T00:37:36;9.13;;;3.97;;
60488;SDS011;46331;49.252;8.904;2023-05-01T00:38:16;8.10;;;3.73;;
60488;SDS011;46331;49.252;8.904;2023-05-01T00:38:57;6.67;;;3.50;;
60488;SDS011;46331;49.252;8.904;2023-05-01T00:39:37;7.57;;;3.85;;
60488;SDS011;46331;49.252;8.904;2023-05-01T00:40:18;7.37;;;3.77;;
60488;SDS011;46331;49.252;8.904;2023-05-01T00:40:58;7.90;;;4.28;;
60488;SDS011;46331;49.252;8.904;2023-05-01T00:41:39;6.97;;;3.70;;
60488;SDS011;46331;49.252;8.904;2023-05-01T00:42:19;9.13;;;3.90;;
60488;SDS011;46331;49.252;8.904;2023-05-01T00:43:00;8.10;;;3.87;;
60488;SDS011;46331;49.252;8.904;2023-05-01T00:43:41;8.52;;;4.50;;
60488;SDS011;46331;49.252;8.904;2023-05-01T00:44:22;8.20;;;3.73;;
60488;SDS011;46331;49.252;8.904;2023-05-01T00:45:02;7.43;;;3.90;;
60488;SDS011;46331;49.252;8.904;2023-05-01T00:45:43;8.05;;;3.80;;
60488;SDS011;46331;49.252;8.904;2023-05-01T00:46:25;8.20;;;3.78;;
60488;SDS011;46331;49.252;8.904;2023-05-01T00:47:09;8.37;;;4.20;;
60488;SDS011;46331;49.252;8.904;2023-05-01T00:47:49;7.20;;;4.07;;
60488;SDS011;46331;49.252;8.904;2023-05-01T00:48:30;9.83;;;4.27;;
60488;SDS011;46331;49.252;8.904;2023-05-01T00:49:10;7.47;;;3.63;;
60488;SDS011;46331;49.252;8.904;2023-05-01T00:49:51;6.77;;;3.57;;
60488;SDS011;46331;49.252;8.904;2023-05-01T00:50:32;6.73;;;3.70;;
60488;SDS011;46331;49.252;8.904;2023-05-01T00:51:13;7.43;;;3.60;;
60488;SDS011;46331;49.252;8.904;2023-05-01T00:51:54;10.38;;;3.75;;
60488;SDS011;46331;49.252;8.904;2023-05-01T00:52:35;7.53;;;3.90;;
60488;SDS011;46331;49.252;8.904;2023-05-01T00:53:16;7.77;;;3.70;;
60488;SDS011;46331;49.252;8.904;2023-05-01T00:54:00;9.85;;;3.78;;
60488;SDS011;46331;49.252;8.904;2023-05-01T00:54:41;8.20;;;3.72;;
60488;SDS011;46331;49.252;8.904;2023-05-01T00:55:22;8.00;;;4.15;;
60488;SDS011;46331;49.252;8.904;2023-05-01T00:56:03;7.10;;;3.63;;
60488;SDS011;46331;49.252;8.904;2023-05-01T00:56:45;8.10;;;4.00;;
60488;SDS011;46331;49.252;8.904;2023-05-01T00:57:27;8.57;;;3.85;;
60488;SDS011;46331;49.252;8.904;2023-05-01T00:58:07;9.57;;;4.27;;
60488;SDS011;46331;49.252;8.904;2023-05-01T00:58:49;9.40;;;4.85;;
60488;SDS011;46331;49.252;8.904;2023-05-01T00:59:33;8.27;;;4.20;;
60488;SDS011;46331;49.252;8.904;2023-05-01T01:00:14;8.27;;;4.50;;
60488;SDS011;46331;49.252;8.904;2023-05-01T01:00:56;7.72;;;4.05;;
60488;SDS011;46331;49.252;8.904;2023-05-01T01:02:42;9.63;;;4.25;;
60488;SDS011;46331;49.252;8.904;2023-05-01T01:03:22;8.50;;;4.33;;
60488;SDS011;46331;49.252;8.904;2023-05-01T01:04:03;7.25;;;4.00;;
60488;SDS011;46331;49.252;8.904;2023-05-01T01:04:44;8.33;;;4.30;;
60488;SDS011;46331;49.252;8.904;2023-05-01T01:05:27;7.32;;;4.20;;
60488;SDS011;46331;49.252;8.904;2023-05-01T01:06:16;7.43;;;4.03;;
60488;SDS011;46331;49.252;8.904;2023-05-01T01:08:32;8.80;;;4.40;;
60488;SDS011;46331;49.252;8.904;2023-05-01T01:09:37;8.07;;;4.28;;
60488;SDS011;46331;49.252;8.904;2023-05-01T01:11:19;8.70;;;4.18;;
60488;SDS011;46331;49.252;8.904;2023-05-01T01:12:30;9.00;;;4.17;;
60488;SDS011;46331;49.252;8.904;2023-05-01T01:13:38;8.75;;;4.03;;
60488;SDS011;46331;49.252;8.904;2023-05-01T01:14:32;8.85;;;3.95;;
60488;SDS011;46331;49.252;8.904;2023-05-01T01:15:25;7.45;;;4.22;;
60488;SDS011;46331;49.252;8.904;2023-05-01T01:18:57;8.52;;;4.75;;
60488;SDS011;46331;49.252;8.904;2023-05-01T01:21:26;9.80;;;4.23;;
60488;SDS011;46331;49.252;8.904;2023-05-01T01:22:12;7.50;;;4.10;;
60488;SDS011;46331;49.252;8.904;2023-05-01T01:27:18;8.65;;;3.78;;
60488;SDS011;46331;49.252;8.904;2023-05-01T01:31:28;8.40;;;3.75;;
60488;SDS011;46331;49.252;8.904;2023-05-01T01:34:34;7.95;;;3.70;;
60488;SDS011;46331;49.252;8.904;2023-05-01T01:35:20;7.60;;;3.80;;
60488;SDS011;46331;49.252;8.904;2023-05-01T01:36:06;8.63;;;3.88;;
60488;SDS011;46331;49.252;8.904;2023-05-01T01:36:58;9.07;;;3.83;;
60488;SDS011;46331;49.252;8.904;2023-05-01T01:37:47;9.00;;;4.10;;
60488;SDS011;46331;49.252;8.904;2023-05-01T01:38:54;8.65;;;3.75;;
60488;SDS011;46331;49.252;8.904;2023-05-01T01:39:48;9.68;;;3.80;;
60488;SDS011;46331;49.252;8.904;2023-05-01T01:40:35;7.05;;;3.65;;
60488;SDS011;46331;49.252;8.904;2023-05-01T01:41:19;6.73;;;3.70;;
60488;SDS011;46331;49.252;8.904;2023-05-01T01:42:08;8.98;;;3.92;;
60488;SDS011;46331;49.252;8.904;2023-05-01T01:42:55;8.75;;;4.20;;
60488;SDS011;46331;49.252;8.904;2023-05-01T01:43:42;7.15;;;3.90;;
60488;SDS011;46331;49.252;8.904;2023-05-01T01:44:32;9.63;;;3.95;;
60488;SDS011;46331;49.252;8.904;2023-05-01T01:45:21;6.93;;;3.47;;
60488;SDS011;46331;49.252;8.904;2023-05-01T01:46:04;8.25;;;3.42;;
60488;SDS011;46331;49.252;8.904;2023-05-01T01:46:47;5.43;;;2.95;;
60488;SDS011;46331;49.252;8.904;2023-05-01T01:47:30;7.60;;;3.70;;
60488;SDS011;46331;49.252;8.904;2023-05-01T01:48:22;6.57;;;3.20;;
60488;SDS011;46331;49.252;8.904;2023-05-01T01:49:12;6.70;;;3.13;;
60488;SDS011;46331;49.252;8.904;2023-05-01T01:50:00;8.02;;;3.20;;
60488;SDS011;46331;49.252;8.904;2023-05-01T01:50:44;5.78;;;2.80;;
60488;SDS011;46331;49.252;8.904;2023-05-01T01:51:26;5.47;;;2.85;;
60488;SDS011;46331;49.252;8.904;2023-05-01T01:52:09;31.40;;;7.75;;
60488;SDS011;46331;49.252;8.904;2023-05-01T01:52:53;6.00;;;3.00;;
60488;SDS011;46331;49.252;8.904;2023-05-01T01:53:38;7.50;;;2.90;;
60488;SDS011;46331;49.252;8.904;2023-05-01T01:54:22;5.72;;;2.92;;
60488;SDS011;46331;49.252;8.904;2023-05-01T01:55:12;5.15;;;2.80;;
60488;SDS011;46331;49.252;8.904;2023-05-01T01:55:55;8.10;;;3.65;;
60488;SDS011;46331;49.252;8.904;2023-05-01T01:56:39;7.93;;;3.50;;
60488;SDS011;46331;49.252;8.904;2023-05-01T01:57:21;6.55;;;3.20;;
60488;SDS011;46331;49.252;8.904;2023-05-01T01:58:03;7.88;;;3.45;;
60488;SDS011;46331;49.252;8.904;2023-05-01T01:58:46;8.02;;;3.17;;
60488;SDS011;46331;49.252;8.904;2023-05-01T01:59:29;8.65;;;3.60;;
60488;SDS011;46331;49.252;8.904;2023-05-01T02:00:12;8.65;;;3.65;;
60488;SDS011;46331;49.252;8.904;2023-05-01T02:00:58;8.43;;;3.83;;
60488;SDS011;46331;49.252;8.904;2023-05-01T02:01:40;7.10;;;3.30;;
60488;SDS011;46331;49.252;8.904;2023-05-01T02:02:23;6.82;;;3.60;;
60488;SDS011;46331;49.252;8.904;2023-05-01T02:03:06;7.05;;;3.75;;
60488;SDS011;46331;49.252;8.904;2023-05-01T02:03:49;7.00;;;4.03;;
60488;SDS011;46331;49.252;8.904;2023-05-01T02:04:31;8.30;;;4.18;;
60488;SDS011;46331;49.252;8.904;2023-05-01T02:05:14;6.40;;;3.72;;
60488;SDS011;46331;49.252;8.904;2023-05-01T02:05:56;8.45;;;3.85;;
60488;SDS011;46331;49.252;8.904;2023-05-01T02:06:39;8.23;;;4.40;;
60488;SDS011;46331;49.252;8.904;2023-05-01T02:07:20;7.35;;;3.17;;
60488;SDS011;46331;49.252;8.904;2023-05-01T02:08:02;8.25;;;3.63;;
60488;SDS011;46331;49.252;8.904;2023-05-01T02:08:45;7.53;;;3.75;;
60488;SDS011;46331;49.252;8.904;2023-05-01T02:09:28;7.53;;;3.90;;
60488;SDS011;46331;49.252;8.904;2023-05-01T02:10:10;6.30;;;3.55;;
60488;SDS011;46331;49.252;8.904;2023-05-01T02:10:52;6.90;;;3.53;;
60488;SDS011;46331;49.252;8.904;2023-05-01T02:11:38;7.05;;;3.55;;
60488;SDS011;46331;49.252;8.904;2023-05-01T02:12:20;5.85;;;3.35;;
60488;SDS011;46331;49.252;8.904;2023-05-01T02:13:07;7.90;;;3.30;;
60488;SDS011;46331;49.252;8.904;2023-05-01T02:13:48;8.35;;;4.43;;
60488;SDS011;46331;49.252;8.904;2023-05-01T02:14:31;7.30;;;3.30;;
60488;SDS011;46331;49.252;8.904;2023-05-01T02:15:13;8.30;;;3.63;;
60488;SDS011;46331;49.252;8.904;2023-05-01T02:15:58;7.70;;;3.40;;
60488;SDS011;46331;49.252;8.904;2023-05-01T02:16:40;6.30;;;3.10;;
60488;SDS011;46331;49.252;8.904;2023-05-01T02:17:22;6.35;;;3.33;;
60488;SDS011;46331;49.252;8.904;2023-05-01T02:18:03;6.13;;;2.90;;
60488;SDS011;46331;49.252;8.904;2023-05-01T02:18:45;8.43;;;3.72;;
60488;SDS011;46331;49.252;8.904;2023-05-01T02:19:26;7.32;;;3.03;;
60488;SDS011;46331;49.252;8.904;2023-05-01T02:20:08;6.80;;;3.20;;
60488;SDS011;46331;49.252;8.904;2023-05-01T02:20:51;6.82;;;3.38;;
60488;SDS011;46331;49.252;8.904;2023-05-01T02:21:32;7.25;;;3.25;;
60488;SDS011;46331;49.252;8.904;2023-05-01T02:22:14;5.85;;;3.15;;
60488;SDS011;46331;49.252;8.904;2023-05-01T02:22:58;6.50;;;3.27;;
60488;SDS011;46331;49.252;8.904;2023-05-01T02:23:39;7.00;;;3.40;;
60488;SDS011;46331;49.252;8.904;2023-05-01T02:24:20;6.85;;;3.08;;
60488;SDS011;46331;49.252;8.904;2023-05-01T02:25:03;6.35;;;3.50;;
60488;SDS011;46331;49.252;8.904;2023-05-01T02:25:46;6.38;;;3.55;;
60488;SDS011;46331;49.252;8.904;2023-05-01T02:26:28;5.90;;;3.25;;
60488;SDS011;46331;49.252;8.904;2023-05-01T02:27:14;7.40;;;3.20;;
60488;SDS011;46331;49.252;8.904;2023-05-01T02:27:59;7.03;;;3.83;;
60488;SDS011;46331;49.252;8.904;2023-05-01T02:28:42;6.90;;;3.50;;
60488;SDS011;46331;49.252;8.904;2023-05-01T02:29:23;7.15;;;3.60;;
60488;SDS011;46331;49.252;8.904;2023-05-01T02:30:04;7.03;;;3.45;;
60488;SDS011;46331;49.252;8.904;2023-05-01T02:30:46;10.32;;;3.70;;
60488;SDS011;46331;49.252;8.904;2023-05-01T02:31:26;6.60;;;3.50;;
60488;SDS011;46331;49.252;8.904;2023-05-01T02:32:07;7.40;;;3.78;;
60488;SDS011;46331;49.252;8.904;2023-05-01T02:32:47;6.73;;;3.50;;
60488;SDS011;46331;49.252;8.904;2023-05-01T02:33:28;6.20;;;3.40;;
60488;SDS011;46331;49.252;8.904;2023-05-01T02:34:08;8.13;;;3.63;;
60488;SDS011;46331;49.252;8.904;2023-05-01T02:34:49;6.10;;;3.45;;
60488;SDS011;46331;49.252;8.904;2023-05-01T02:35:30;7.20;;;3.10;;
60488;SDS011;46331;49.252;8.904;2023-05-01T02:36:10;6.78;;;3.40;;
60488;SDS011;46331;49.252;8.904;2023-05-01T02:36:52;7.38;;;3.47;;
60488;SDS011;46331;49.252;8.904;2023-05-01T02:37:33;7.50;;;3.67;;
60488;SDS011;46331;49.252;8.904;2023-05-01T02:38:16;6.68;;;3.65;;
60488;SDS011;46331;49.252;8.904;2023-05-01T02:38:56;6.55;;;3.33;;
60488;SDS011;46331;49.252;8.904;2023-05-01T02:39:38;6.60;;;3.50;;
60488;SDS011;46331;49.252;8.904;2023-05-01T02:40:19;6.93;;;3.75;;
60488;SDS011;46331;49.252;8.904;2023-05-01T02:41:01;7.85;;;3.63;;
60488;SDS011;46331;49.252;8.904;2023-05-01T02:41:42;6.95;;;3.30;;
60488;SDS011;46331;49.252;8.904;2023-05-01T02:42:25;8.13;;;3.47;;
60488;SDS011;46331;49.252;8.904;2023-05-01T02:43:07;7.50;;;3.30;;
60488;SDS011;46331;49.252;8.904;2023-05-01T02:43:52;8.98;;;3.75;;
60488;SDS011;46331;49.252;8.904;2023-05-01T02:44:39;5.68;;;2.90;;
60488;SDS011;46331;49.252;8.904;2023-05-01T02:45:24;7.53;;;3.53;;
60488;SDS011;46331;49.252;8.904;2023-05-01T02:46:06;6.20;;;2.97;;
60488;SDS011;46331;49.252;8.904;2023-05-01T02:46:49;5.68;;;2.67;;
60488;SDS011;46331;49.252;8.904;2023-05-01T02:47:34;6.55;;;3.22;;
60488;SDS011;46331;49.252;8.904;2023-05-01T02:48:21;7.07;;;3.00;;
60488;SDS011;46331;49.252;8.904;2023-05-01T02:49:04;5.70;;;2.80;;
60488;SDS011;46331;49.252;8.904;2023-05-01T02:49:47;8.38;;;3.20;;
60488;SDS011;46331;49.252;8.904;2023-05-01T02:50:30;6.40;;;2.95;;
60488;SDS011;46331;49.252;8.904;2023-05-01T02:51:12;6.45;;;2.50;;
60488;SDS011;46331;49.252;8.904;2023-05-01T02:51:53;5.43;;;2.70;;
60488;SDS011;46331;49.252;8.904;2023-05-01T02:52:35;5.23;;;2.50;;
60488;SDS011;46331;49.252;8.904;2023-05-01T02:53:37;6.20;;;2.60;;
60488;SDS011;46331;49.252;8.904;2023-05-01T02:54:29;5.47;;;2.45;;
60488;SDS011;46331;49.252;8.904;2023-05-01T02:55:11;6.78;;;2.42;;
60488;SDS011;46331;49.252;8.904;2023-05-01T02:55:52;6.40;;;2.20;;
60488;SDS011;46331;49.252;8.904;2023-05-01T02:56:33;5.67;;;2.50;;
60488;SDS011;46331;49.252;8.904;2023-05-01T02:57:16;5.88;;;2.60;;
60488;SDS011;46331;49.252;8.904;2023-05-01T02:57:58;5.60;;;2.50;;
60488;SDS011;46331;49.252;8.904;2023-05-01T02:58:39;5.25;;;2.15;;
60488;SDS011;46331;49.252;8.904;2023-05-01T02:59:20;5.43;;;2.47;;
60488;SDS011;46331;49.252;8.904;2023-05-01T03:00:00;5.03;;;2.17;;
60488;SDS011;46331;49.252;8.904;2023-05-01T03:00:41;6.05;;;2.40;;
60488;SDS011;46331;49.252;8.904;2023-05-01T03:01:22;5.63;;;2.30;;
60488;SDS011;46331;49.252;8.904;2023-05-01T03:02:02;4.88;;;2.30;;
60488;SDS011;46331;49.252;8.904;2023-05-01T03:02:46;4.47;;;1.90;;
60488;SDS011;46331;49.252;8.904;2023-05-01T03:03:27;5.77;;;2.30;;
60488;SDS011;46331;49.252;8.904;2023-05-01T03:04:07;5.47;;;2.20;;
60488;SDS011;46331;49.252;8.904;2023-05-01T03:04:49;5.50;;;2.08;;
60488;SDS011;46331;49.252;8.904;2023-05-01T03:05:29;4.20;;;2.00;;
60488;SDS011;46331;49.252;8.904;2023-05-01T03:06:10;5.97;;;2.40;;
60488;SDS011;46331;49.252;8.904;2023-05-01T03:06:50;4.60;;;2.10;;
60488;SDS011;46331;49.252;8.904;2023-05-01T03:07:31;5.55;;;2.10;;
60488;SDS011;46331;49.252;8.904;2023-05-01T03:08:14;4.83;;;2.07;;
60488;SDS011;46331;49.252;8.904;2023-05-01T03:08:54;4.90;;;2.10;;
60488;SDS011;46331;49.252;8.904;2023-05-01T03:09:35;7.37;;;2.20;;
60488;SDS011;46331;49.252;8.904;2023-05-01T03:10:16;5.63;;;2.45;;
60488;SDS011;46331;49.252;8.904;2023-05-01T03:10:56;5.15;;;2.25;;
60488;SDS011;46331;49.252;8.904;2023-05-01T03:11:37;4.97;;;2.20;;
60488;SDS011;46331;49.252;8.904;2023-05-01T03:12:18;5.53;;;2.65;;
60488;SDS011;46331;49.252;8.904;2023-05-01T03:12:58;4.50;;;2.20;;
60488;SDS011;46331;49.252;8.904;2023-05-01T03:13:40;5.65;;;2.20;;
60488;SDS011;46331;49.252;8.904;2023-05-01T03:14:21;6.43;;;2.50;;
60488;SDS011;46331;49.252;8.904;2023-05-01T03:15:02;5.88;;;2.25;;
60488;SDS011;46331;49.252;8.904;2023-05-01T03:15:44;5.85;;;2.22;;
60488;SDS011;46331;49.252;8.904;2023-05-01T03:16:24;6.13;;;2.03;;
60488;SDS011;46331;49.252;8.904;2023-05-01T03:17:05;6.60;;;2.40;;
60488;SDS011;46331;49.252;8.904;2023-05-01T03:17:46;5.50;;;2.40;;
60488;SDS011;46331;49.252;8.904;2023-05-01T03:18:26;6.23;;;2.20;;
60488;SDS011;46331;49.252;8.904;2023-05-01T03:19:07;5.85;;;3.03;;
60488;SDS011;46331;49.252;8.904;2023-05-01T03:19:47;5.40;;;2.13;;
60488;SDS011;46331;49.252;8.904;2023-05-01T03:20:28;8.32;;;2.55;;
60488;SDS011;46331;49.252;8.904;2023-05-01T03:21:09;5.32;;;2.33;;
60488;SDS011;46331;49.252;8.904;2023-05-01T03:21:51;5.55;;;2.25;;
60488;SDS011;46331;49.252;8.904;2023-05-01T03:22:32;5.23;;;2.17;;
60488;SDS011;46331;49.252;8.904;2023-05-01T03:23:12;7.78;;;2.58;;
60488;SDS011;46331;49.252;8.904;2023-05-01T03:23:53;5.40;;;2.13;;
60488;SDS011;46331;49.252;8.904;2023-05-01T03:24:34;5.30;;;2.20;;
60488;SDS011;46331;49.252;8.904;2023-05-01T03:25:14;6.00;;;2.30;;
60488;SDS011;46331;49.252;8.904;2023-05-01T03:25:55;6.10;;;2.60;;
60488;SDS011;46331;49.252;8.904;2023-05-01T03:26:36;8.48;;;2.78;;
60488;SDS011;46331;49.252;8.904;2023-05-01T03:27:17;5.72;;;2.30;;
60488;SDS011;46331;49.252;8.904;2023-05-01T03:27:57;7.07;;;2.40;;
60488;SDS011;46331;49.252;8.904;2023-05-01T03:28:38;6.53;;;2.70;;
60488;SDS011;46331;49.252;8.904;2023-05-01T03:29:19;4.70;;;2.25;;
60488;SDS011;46331;49.252;8.904;2023-05-01T03:30:00;5.50;;;2.70;;
60488;SDS011;46331;49.252;8.904;2023-05-01T03:30:43;4.97;;;2.10;;
60488;SDS011;46331;49.252;8.904;2023-05-01T03:31:24;7.53;;;2.03;;
60488;SDS011;46331;49.252;8.904;2023-05-01T03:32:04;5.05;;;2.47;;
60488;SDS011;46331;49.252;8.904;2023-05-01T03:32:45;5.38;;;2.40;;
60488;SDS011;46331;49.252;8.904;2023-05-01T03:33:34;5.77;;;2.30;;
60488;SDS011;46331;49.252;8.904;2023-05-01T03:34:14;5.53;;;2.25;;
60488;SDS011;46331;49.252;8.904;2023-05-01T03:34:55;4.97;;;2.30;;
60488;SDS011;46331;49.252;8.904;2023-05-01T03:35:36;6.87;;;2.40;;
60488;SDS011;46331;49.252;8.904;2023-05-01T03:36:19;6.15;;;2.42;;
60488;SDS011;46331;49.252;8.904;2023-05-01T03:37:02;5.28;;;2.30;;
60488;SDS011;46331;49.252;8.904;2023-05-01T03:37:43;5.05;;;2.10;;
60488;SDS011;46331;49.252;8.904;2023-05-01T03:38:26;5.65;;;2.47;;
60488;SDS011;46331;49.252;8.904;2023-05-01T03:39:27;5.85;;;2.17;;
60488;SDS011;46331;49.252;8.904;2023-05-01T03:40:26;5.77;;;2.10;;
60488;SDS011;46331;49.252;8.904;2023-05-01T03:41:33;5.63;;;2.30;;
60488;SDS011;46331;49.252;8.904;2023-05-01T03:42:21;5.30;;;2.28;;
60488;SDS011;46331;49.252;8.904;2023-05-01T03:43:03;7.55;;;2.35;;
60488;SDS011;46331;49.252;8.904;2023-05-01T03:43:43;5.50;;;2.30;;
60488;SDS011;46331;49.252;8.904;2023-05-01T03:44:41;4.97;;;2.20;;
60488;SDS011;46331;49.252;8.904;2023-05-01T03:45:22;5.03;;;2.27;;
60488;SDS011;46331;49.252;8.904;2023-05-01T03:46:02;6.10;;;2.13;;
60488;SDS011;46331;49.252;8.904;2023-05-01T03:46:46;4.70;;;1.98;;
60488;SDS011;46331;49.252;8.904;2023-05-01T03:47:33;4.63;;;2.10;;
60488;SDS011;46331;49.252;8.904;2023-05-01T03:48:13;5.90;;;2.30;;
60488;SDS011;46331;49.252;8.904;2023-05-01T03:48:55;7.50;;;2.13;;
60488;SDS011;46331;49.252;8.904;2023-05-01T03:49:36;4.43;;;2.10;;
60488;SDS011;46331;49.252;8.904;2023-05-01T03:50:16;5.13;;;2.40;;
60488;SDS011;46331;49.252;8.904;2023-05-01T03:50:58;5.30;;;2.38;;
60488;SDS011;46331;49.252;8.904;2023-05-01T03:51:39;7.35;;;2.60;;
60488;SDS011;46331;49.252;8.904;2023-05-01T03:52:19;5.43;;;2.53;;
60488;SDS011;46331;49.252;8.904;2023-05-01T03:53:00;6.55;;;2.20;;
60488;SDS011;46331;49.252;8.904;2023-05-01T03:53:40;5.57;;;2.30;;
60488;SDS011;46331;49.252;8.904;2023-05-01T03:54:22;4.47;;;2.17;;
60488;SDS011;46331;49.252;8.904;2023-05-01T03:55:23;6.82;;;2.30;;
60488;SDS011;46331;49.252;8.904;2023-05-01T03:56:04;5.10;;;2.35;;
60488;SDS011;46331;49.252;8.904;2023-05-01T03:56:44;5.50;;;2.30;;
60488;SDS011;46331;49.252;8.904;2023-05-01T03:57:26;5.47;;;2.42;;
60488;SDS011;46331;49.252;8.904;2023-05-01T03:58:06;5.95;;;2.45;;
60488;SDS011;46331;49.252;8.904;2023-05-01T03:58:47;4.65;;;2.10;;
60488;SDS011;46331;49.252;8.904;2023-05-01T03:59:28;6.57;;;2.57;;
60488;SDS011;46331;49.252;8.904;2023-05-01T04:00:09;6.75;;;2.10;;
60488;SDS011;46331;49.252;8.904;2023-05-01T04:00:57;6.50;;;2.90;;
60488;SDS011;46331;49.252;8.904;2023-05-01T04:01:40;8.43;;;2.75;;
60488;SDS011;46331;49.252;8.904;2023-05-01T04:02:21;5.80;;;2.60;;
60488;SDS011;46331;49.252;8.904;2023-05-01T04:03:02;5.68;;;2.38;;
60488;SDS011;46331;49.252;8.904;2023-05-01T04:03:44;7.80;;;2.78;;
60488;SDS011;46331;49.252;8.904;2023-05-01T04:04:25;8.32;;;2.38;;
60488;SDS011;46331;49.252;8.904;2023-05-01T04:05:10;6.30;;;2.30;;
60488;SDS011;46331;49.252;8.904;2023-05-01T04:05:52;5.93;;;2.07;;
60488;SDS011;46331;49.252;8.904;2023-05-01T04:06:33;5.75;;;2.30;;
60488;SDS011;46331;49.252;8.904;2023-05-01T04:07:13;6.18;;;2.47;;
60488;SDS011;46331;49.252;8.904;2023-05-01T04:07:54;5.33;;;2.07;;
60488;SDS011;46331;49.252;8.904;2023-05-01T04:08:35;5.70;;;2.30;;
60488;SDS011;46331;49.252;8.904;2023-05-01T04:09:16;5.05;;;2.00;;
60488;SDS011;46331;49.252;8.904;2023-05-01T04:09:56;6.27;;;2.33;;
60488;SDS011;46331;49.252;8.904;2023-05-01T04:10:37;7.47;;;2.13;;
60488;SDS011;46331;49.252;8.904;2023-05-01T04:11:18;5.68;;;2.20;;
60488;SDS011;46331;49.252;8.904;2023-05-01T04:11:59;5.80;;;2.23;;
60488;SDS011;46331;49.252;8.904;2023-05-01T04:12:41;5.63;;;2.28;;
60488;SDS011;46331;49.252;8.904;2023-05-01T04:13:22;6.05;;;2.08;;
60488;SDS011;46331;49.252;8.904;2023-05-01T04:14:02;4.67;;;2.20;;
60488;SDS011;46331;49.252;8.904;2023-05-01T04:14:43;6.93;;;2.40;;
60488;SDS011;46331;49.252;8.904;2023-05-01T04:15:25;7.63;;;2.33;;
60488;SDS011;46331;49.252;8.904;2023-05-01T04:16:06;7.43;;;2.25;;
60488;SDS011;46331;49.252;8.904;2023-05-01T04:16:46;6.30;;;2.40;;
60488;SDS011;46331;49.252;8.904;2023-05-01T04:17:27;6.23;;;2.50;;
60488;SDS011;46331;49.252;8.904;2023-05-01T04:18:08;6.38;;;2.50;;
60488;SDS011;46331;49.252;8.904;2023-05-01T04:18:48;6.63;;;2.90;;
60488;SDS011;46331;49.252;8.904;2023-05-01T04:19:30;5.47;;;2.40;;
60488;SDS011;46331;49.252;8.904;2023-05-01T04:20:12;6.03;;;2.30;;
60488;SDS011;46331;49.252;8.904;2023-05-01T04:20:53;6.43;;;2.47;;
60488;SDS011;46331;49.252;8.904;2023-05-01T04:21:34;5.57;;;2.83;;
60488;SDS011;46331;49.252;8.904;2023-05-01T04:22:15;5.57;;;2.30;;
60488;SDS011;46331;49.252;8.904;2023-05-01T04:22:56;6.80;;;2.97;;
60488;SDS011;46331;49.252;8.904;2023-05-01T04:23:37;6.05;;;2.45;;
60488;SDS011;46331;49.252;8.904;2023-05-01T04:24:17;9.03;;;2.80;;
60488;SDS011;46331;49.252;8.904;2023-05-01T04:24:58;5.60;;;2.33;;
60488;SDS011;46331;49.252;8.904;2023-05-01T04:25:38;7.67;;;2.77;;
60488;SDS011;46331;49.252;8.904;2023-05-01T04:26:24;5.28;;;2.42;;
60488;SDS011;46331;49.252;8.904;2023-05-01T04:27:05;5.53;;;2.58;;
60488;SDS011;46331;49.252;8.904;2023-05-01T04:27:46;5.60;;;2.30;;
60488;SDS011;46331;49.252;8.904;2023-05-01T04:28:28;7.68;;;2.63;;
60488;SDS011;46331;49.252;8.904;2023-05-01T04:29:10;4.88;;;2.20;;
60488;SDS011;46331;49.252;8.904;2023-05-01T04:29:50;6.37;;;2.70;;
60488;SDS011;46331;49.252;8.904;2023-05-01T04:30:31;7.80;;;2.50;;
60488;SDS011;46331;49.252;8.904;2023-05-01T04:31:12;6.80;;;2.40;;
60488;SDS011;46331;49.252;8.904;2023-05-01T04:31:52;5.30;;;2.50;;
60488;SDS011;46331;49.252;8.904;2023-05-01T04:32:33;5.20;;;2.40;;
60488;SDS011;46331;49.252;8.904;2023-05-01T04:33:15;5.47;;;2.20;;
60488;SDS011;46331;49.252;8.904;2023-05-01T04:33:55;5.45;;;2.35;;
60488;SDS011;46331;49.252;8.904;2023-05-01T04:34:37;5.45;;;2.40;;
60488;SDS011;46331;49.252;8.904;2023-05-01T04:35:18;5.77;;;2.40;;